sensor_id;sensor_type;location;lat;lon;timestamp;pressure;altitude;pressure_sealevel;temperature;humidity
31082;BME280;17737;52.586;13.284;2023-05-17T00:00:18;101405.44;;;8.24;65.58
31082;BME280;17737;52.586;13.284;2023-05-17T00:02:46;101395.34;;;8.17;65.95
31082;BME280;17737;52.586;13.284;2023-05-17T00:05:14;101392.94;;;8.14;66.50
31082;BME280;17737;52.586;13.284;2023-05-17T00:07:42;101395.91;;;8.11;66.78
31082;BME280;17737;52.586;13.284;2023-05-17T00:10:10;101388.94;;;7.99;67.42
31082;BME280;17737;52.586;13.284;2023-05-17T00:12:39;101394.16;;;8.00;67.86
31082;BME280;17737;52.586;13.284;2023-05-17T00:15:08;101391.16;;;7.94;68.20
31082;BME280;17737;52.586;13.284;2023-05-17T00:17:36;101403.03;;;7.91;68.52
31082;BME280;17737;52.586;13.284;2023-05-17T00:20:05;101397.53;;;7.93;68.56
31082;BME280;17737;52.586;13.284;2023-05-17T00:22:34;101399.78;;;7.88;68.97
31082;BME280;17737;52.586;13.284;2023-05-17T00:25:02;101400.06;;;7.85;69.49
31082;BME280;17737;52.586;13.284;2023-05-17T00:27:31;101396.06;;;7.79;69.68
31082;BME280;17737;52.586;13.284;2023-05-17T00:30:00;101388.53;;;7.73;70.29
31082;BME280;17737;52.586;13.284;2023-05-17T00:32:28;101385.72;;;7.75;70.62
31082;BME280;17737;52.586;13.284;2023-05-17T00:34:56;101383.16;;;7.64;71.12
31082;BME280;17737;52.586;13.284;2023-05-17T00:37:24;101386.13;;;7.70;71.19
31082;BME280;17737;52.586;13.284;2023-05-17T00:39:52;101390.34;;;7.63;71.65
31082;BME280;17737;52.586;13.284;2023-05-17T00:42:20;101396.56;;;7.64;72.29
31082;BME280;17737;52.586;13.284;2023-05-17T00:44:48;101393.28;;;7.60;72.15
31082;BME280;17737;52.586;13.284;2023-05-17T00:47:18;101394.16;;;7.61;72.04
31082;BME280;17737;52.586;13.284;2023-05-17T00:49:46;101392.44;;;7.60;72.55
31082;BME280;17737;52.586;13.284;2023-05-17T00:52:14;101394.81;;;7.53;72.70
31082;BME280;17737;52.586;13.284;2023-05-17T00:54:42;101389.16;;;7.56;72.95
31082;BME280;17737;52.586;13.284;2023-05-17T00:57:11;101398.63;;;7.51;73.09
31082;BME280;17737;52.586;13.284;2023-05-17T00:59:41;101396.59;;;7.43;73.81
31082;BME280;17737;52.586;13.284;2023-05-17T01:02:11;101406.06;;;7.47;73.53
31082;BME280;17737;52.586;13.284;2023-05-17T01:04:40;101407.91;;;7.47;74.01
31082;BME280;17737;52.586;13.284;2023-05-17T01:07:08;101394.09;;;7.51;73.68
31082;BME280;17737;52.586;13.284;2023-05-17T01:09:36;101394.63;;;7.45;74.00
31082;BME280;17737;52.586;13.284;2023-05-17T01:12:10;101405.34;;;7.45;74.44
31082;BME280;17737;52.586;13.284;2023-05-17T01:14:56;101403.19;;;7.39;74.32
31082;BME280;17737;52.586;13.284;2023-05-17T01:17:35;101409.94;;;7.34;75.00
31082;BME280;17737;52.586;13.284;2023-05-17T01:20:15;101404.19;;;7.38;74.91
31082;BME280;17737;52.586;13.284;2023-05-17T01:22:50;101410.31;;;7.29;75.20
31082;BME280;17737;52.586;13.284;2023-05-17T01:25:35;101403.53;;;7.25;75.82
31082;BME280;17737;52.586;13.284;2023-05-17T01:28:13;101401.56;;;7.27;75.81
31082;BME280;17737;52.586;13.284;2023-05-17T01:30:44;101404.22;;;7.27;76.95
31082;BME280;17737;52.586;13.284;2023-05-17T01:33:17;101406.13;;;7.36;76.58
31082;BME280;17737;52.586;13.284;2023-05-17T01:35:46;101395.22;;;7.28;77.07
31082;BME280;17737;52.586;13.284;2023-05-17T01:38:14;101408.91;;;7.25;77.66
31082;BME280;17737;52.586;13.284;2023-05-17T01:40:47;101411.59;;;7.25;77.41
31082;BME280;17737;52.586;13.284;2023-05-17T01:43:28;101413.91;;;7.18;77.78
31082;BME280;17737;52.586;13.284;2023-05-17T01:46:06;101423.66;;;7.19;78.23
31082;BME280;17737;52.586;13.284;2023-05-17T01:48:44;101420.13;;;7.19;77.99
31082;BME280;17737;52.586;13.284;2023-05-17T01:51:20;101423.25;;;7.24;77.91
31082;BME280;17737;52.586;13.284;2023-05-17T01:53:56;101419.63;;;7.25;78.08
31082;BME280;17737;52.586;13.284;2023-05-17T01:56:35;101421.44;;;7.24;78.39
31082;BME280;17737;52.586;13.284;2023-05-17T01:59:13;101426.84;;;7.13;78.11
31082;BME280;17737;52.586;13.284;2023-05-17T02:01:47;101422.44;;;7.23;78.60
31082;BME280;17737;52.586;13.284;2023-05-17T02:04:18;101430.13;;;7.17;78.63
31082;BME280;17737;52.586;13.284;2023-05-17T02:06:46;101435.34;;;7.18;78.81
31082;BME280;17737;52.586;13.284;2023-05-17T02:09:14;101430.34;;;7.25;78.92
31082;BME280;17737;52.586;13.284;2023-05-17T02:11:42;101425.44;;;7.30;78.73
31082;BME280;17737;52.586;13.284;2023-05-17T02:14:11;101425.91;;;7.35;78.77
31082;BME280;17737;52.586;13.284;2023-05-17T02:16:39;101419.09;;;7.31;78.90
31082;BME280;17737;52.586;13.284;2023-05-17T02:19:07;101416.59;;;7.39;78.86
31082;BME280;17737;52.586;13.284;2023-05-17T02:21:38;101420.59;;;7.45;79.17
31082;BME280;17737;52.586;13.284;2023-05-17T02:24:06;101421.34;;;7.56;78.73
31082;BME280;17737;52.586;13.284;2023-05-17T02:26:34;101414.47;;;7.63;78.34
31082;BME280;17737;52.586;13.284;2023-05-17T02:29:02;101422.25;;;7.66;78.28
31082;BME280;17737;52.586;13.284;2023-05-17T02:31:32;101417.47;;;7.70;77.88
31082;BME280;17737;52.586;13.284;2023-05-17T02:34:00;101416.81;;;7.77;77.60
31082;BME280;17737;52.586;13.284;2023-05-17T02:36:28;101407.19;;;7.75;77.65
31082;BME280;17737;52.586;13.284;2023-05-17T02:38:56;101406.66;;;7.81;77.62
31082;BME280;17737;52.586;13.284;2023-05-17T02:41:24;101413.56;;;7.83;77.82
31082;BME280;17737;52.586;13.284;2023-05-17T02:43:52;101409.03;;;7.74;78.16
31082;BME280;17737;52.586;13.284;2023-05-17T02:46:20;101412.38;;;7.67;78.18
31082;BME280;17737;52.586;13.284;2023-05-17T02:48:50;101414.25;;;7.76;77.56
31082;BME280;17737;52.586;13.284;2023-05-17T02:51:18;101412.00;;;7.71;77.86
31082;BME280;17737;52.586;13.284;2023-05-17T02:53:46;101418.59;;;7.67;77.94
31082;BME280;17737;52.586;13.284;2023-05-17T02:56:14;101408.31;;;7.72;77.84
31082;BME280;17737;52.586;13.284;2023-05-17T02:58:42;101407.16;;;7.65;77.88
31082;BME280;17737;52.586;13.284;2023-05-17T03:01:10;101416.97;;;7.55;78.99
31082;BME280;17737;52.586;13.284;2023-05-17T03:03:38;101416.88;;;7.66;78.15
31082;BME280;17737;52.586;13.284;2023-05-17T03:06:07;101422.94;;;7.59;78.58
31082;BME280;17737;52.586;13.284;2023-05-17T03:08:35;101428.34;;;7.68;78.38
31082;BME280;17737;52.586;13.284;2023-05-17T03:11:03;101434.69;;;7.67;78.73
31082;BME280;17737;52.586;13.284;2023-05-17T03:13:31;101431.16;;;7.67;78.51
31082;BME280;17737;52.586;13.284;2023-05-17T03:15:59;101440.06;;;7.67;78.72
31082;BME280;17737;52.586;13.284;2023-05-17T03:18:27;101438.53;;;7.74;78.37
31082;BME280;17737;52.586;13.284;2023-05-17T03:20:56;101446.31;;;7.77;78.74
31082;BME280;17737;52.586;13.284;2023-05-17T03:23:25;101443.63;;;7.77;78.76
31082;BME280;17737;52.586;13.284;2023-05-17T03:25:53;101444.50;;;7.78;78.51
31082;BME280;17737;52.586;13.284;2023-05-17T03:28:21;101438.41;;;7.76;78.89
31082;BME280;17737;52.586;13.284;2023-05-17T03:30:49;101438.56;;;7.84;78.72
31082;BME280;17737;52.586;13.284;2023-05-17T03:33:17;101450.53;;;7.80;79.10
31082;BME280;17737;52.586;13.284;2023-05-17T03:35:46;101449.31;;;7.84;78.90
31082;BME280;17737;52.586;13.284;2023-05-17T03:38:14;101445.38;;;7.88;78.65
31082;BME280;17737;52.586;13.284;2023-05-17T03:40:43;101450.34;;;7.92;78.20
31082;BME280;17737;52.586;13.284;2023-05-17T03:43:11;101454.41;;;7.87;78.66
31082;BME280;17737;52.586;13.284;2023-05-17T03:45:39;101457.09;;;7.66;78.81
31082;BME280;17737;52.586;13.284;2023-05-17T03:48:07;101455.84;;;7.61;79.49
31082;BME280;17737;52.586;13.284;2023-05-17T03:50:35;101452.59;;;7.67;79.18
31082;BME280;17737;52.586;13.284;2023-05-17T03:53:04;101463.47;;;7.65;79.71
31082;BME280;17737;52.586;13.284;2023-05-17T03:55:32;101455.88;;;8.00;79.28
31082;BME280;17737;52.586;13.284;2023-05-17T03:58:01;101462.59;;;8.15;77.80
31082;BME280;17737;52.586;13.284;2023-05-17T04:00:30;101471.81;;;7.92;78.54
31082;BME280;17737;52.586;13.284;2023-05-17T04:02:58;101464.19;;;7.97;78.96
31082;BME280;17737;52.586;13.284;2023-05-17T04:05:26;101472.94;;;8.20;78.11
31082;BME280;17737;52.586;13.284;2023-05-17T04:07:54;101480.44;;;8.26;77.88
31082;BME280;17737;52.586;13.284;2023-05-17T04:10:23;101482.84;;;8.59;77.02
31082;BME280;17737;52.586;13.284;2023-05-17T04:12:51;101487.19;;;8.51;76.25
31082;BME280;17737;52.586;13.284;2023-05-17T04:15:23;101495.91;;;9.11;74.33
31082;BME280;17737;52.586;13.284;2023-05-17T04:17:51;101500.28;;;9.69;72.61
31082;BME280;17737;52.586;13.284;2023-05-17T04:20:19;101497.91;;;10.03;70.81
31082;BME280;17737;52.586;13.284;2023-05-17T04:22:47;101504.38;;;9.74;70.61
31082;BME280;17737;52.586;13.284;2023-05-17T04:25:15;101507.22;;;9.72;71.26
31082;BME280;17737;52.586;13.284;2023-05-17T04:27:44;101504.19;;;9.85;70.52
31082;BME280;17737;52.586;13.284;2023-05-17T04:30:13;101512.53;;;9.91;70.38
31082;BME280;17737;52.586;13.284;2023-05-17T04:32:42;101507.53;;;10.25;69.40
31082;BME280;17737;52.586;13.284;2023-05-17T04:35:11;101522.06;;;9.76;70.38
31082;BME280;17737;52.586;13.284;2023-05-17T04:37:39;101515.28;;;9.72;70.46
31082;BME280;17737;52.586;13.284;2023-05-17T04:40:08;101521.13;;;10.23;69.19
31082;BME280;17737;52.586;13.284;2023-05-17T04:42:36;101520.44;;;10.21;68.89
31082;BME280;17737;52.586;13.284;2023-05-17T04:45:05;101527.50;;;10.22;68.98
31082;BME280;17737;52.586;13.284;2023-05-17T04:47:34;101524.00;;;10.12;69.27
31082;BME280;17737;52.586;13.284;2023-05-17T04:50:04;101518.97;;;10.63;66.98
31082;BME280;17737;52.586;13.284;2023-05-17T04:52:33;101525.28;;;10.18;67.89
31082;BME280;17737;52.586;13.284;2023-05-17T04:55:01;101521.94;;;10.33;68.08
31082;BME280;17737;52.586;13.284;2023-05-17T04:57:30;101531.81;;;10.42;67.81
31082;BME280;17737;52.586;13.284;2023-05-17T04:59:58;101538.91;;;10.43;67.42
31082;BME280;17737;52.586;13.284;2023-05-17T05:02:26;101543.69;;;10.49;67.23
31082;BME280;17737;52.586;13.284;2023-05-17T05:04:54;101553.53;;;10.68;66.58
31082;BME280;17737;52.586;13.284;2023-05-17T05:07:24;101554.59;;;10.21;68.18
31082;BME280;17737;52.586;13.284;2023-05-17T05:09:52;101559.69;;;10.88;66.29
31082;BME280;17737;52.586;13.284;2023-05-17T05:12:20;101559.63;;;10.97;66.35
31082;BME280;17737;52.586;13.284;2023-05-17T05:14:48;101565.66;;;10.81;66.11
31082;BME280;17737;52.586;13.284;2023-05-17T05:17:16;101567.53;;;10.44;67.01
31082;BME280;17737;52.586;13.284;2023-05-17T05:19:44;101574.00;;;10.88;66.11
31082;BME280;17737;52.586;13.284;2023-05-17T05:22:12;101577.41;;;11.35;64.22
31082;BME280;17737;52.586;13.284;2023-05-17T05:24:41;101581.44;;;11.04;64.33
31082;BME280;17737;52.586;13.284;2023-05-17T05:27:09;101594.63;;;11.07;65.24
31082;BME280;17737;52.586;13.284;2023-05-17T05:29:37;101593.91;;;10.50;65.70
31082;BME280;17737;52.586;13.284;2023-05-17T05:32:06;101596.56;;;10.04;68.46
31082;BME280;17737;52.586;13.284;2023-05-17T05:34:34;101594.72;;;9.47;69.83
31082;BME280;17737;52.586;13.284;2023-05-17T05:37:02;101590.72;;;9.23;70.61
31082;BME280;17737;52.586;13.284;2023-05-17T05:39:31;101601.63;;;9.12;70.70
31082;BME280;17737;52.586;13.284;2023-05-17T05:42:00;101602.81;;;9.38;70.22
31082;BME280;17737;52.586;13.284;2023-05-17T05:44:29;101603.34;;;9.32;70.28
31082;BME280;17737;52.586;13.284;2023-05-17T05:46:57;101614.81;;;9.34;70.29
31082;BME280;17737;52.586;13.284;2023-05-17T05:49:25;101611.13;;;9.25;70.62
31082;BME280;17737;52.586;13.284;2023-05-17T05:51:55;101617.81;;;9.59;68.86
31082;BME280;17737;52.586;13.284;2023-05-17T05:54:24;101615.13;;;9.79;67.04
31082;BME280;17737;52.586;13.284;2023-05-17T05:56:52;101615.97;;;9.41;67.53
31082;BME280;17737;52.586;13.284;2023-05-17T05:59:22;101620.19;;;9.34;68.39
31082;BME280;17737;52.586;13.284;2023-05-17T06:01:50;101626.88;;;9.68;67.52
31082;BME280;17737;52.586;13.284;2023-05-17T06:04:18;101622.47;;;9.29;66.63
31082;BME280;17737;52.586;13.284;2023-05-17T06:06:55;101635.25;;;9.94;64.86
31082;BME280;17737;52.586;13.284;2023-05-17T06:09:23;101641.75;;;9.91;64.73
31082;BME280;17737;52.586;13.284;2023-05-17T06:11:51;101630.56;;;9.96;64.72
31082;BME280;17737;52.586;13.284;2023-05-17T06:14:23;101638.50;;;9.78;64.10
31082;BME280;17737;52.586;13.284;2023-05-17T06:16:51;101636.78;;;9.67;65.54
31082;BME280;17737;52.586;13.284;2023-05-17T06:19:19;101640.22;;;9.89;65.13
31082;BME280;17737;52.586;13.284;2023-05-17T06:21:47;101656.06;;;9.82;64.91
31082;BME280;17737;52.586;13.284;2023-05-17T06:24:15;101659.97;;;10.54;63.54
31082;BME280;17737;52.586;13.284;2023-05-17T06:26:43;101659.09;;;10.63;61.46
31082;BME280;17737;52.586;13.284;2023-05-17T06:29:12;101660.28;;;10.51;60.47
31082;BME280;17737;52.586;13.284;2023-05-17T06:31:41;101671.06;;;9.56;60.73
31082;BME280;17737;52.586;13.284;2023-05-17T06:34:09;101676.16;;;9.59;60.05
31082;BME280;17737;52.586;13.284;2023-05-17T06:36:37;101668.06;;;9.59;59.46
31082;BME280;17737;52.586;13.284;2023-05-17T06:39:06;101658.06;;;10.09;59.20
31082;BME280;17737;52.586;13.284;2023-05-17T06:41:34;101661.75;;;10.17;58.36
31082;BME280;17737;52.586;13.284;2023-05-17T06:44:02;101656.19;;;10.38;56.47
31082;BME280;17737;52.586;13.284;2023-05-17T06:46:30;101663.81;;;10.42;56.90
31082;BME280;17737;52.586;13.284;2023-05-17T06:48:59;101661.16;;;10.33;56.09
31082;BME280;17737;52.586;13.284;2023-05-17T06:51:28;101666.47;;;10.61;55.61
31082;BME280;17737;52.586;13.284;2023-05-17T06:53:56;101667.69;;;10.21;56.17
31082;BME280;17737;52.586;13.284;2023-05-17T06:56:24;101676.88;;;10.37;56.25
31082;BME280;17737;52.586;13.284;2023-05-17T06:58:52;101675.44;;;10.62;56.32
31082;BME280;17737;52.586;13.284;2023-05-17T07:01:20;101677.69;;;11.03;55.99
31082;BME280;17737;52.586;13.284;2023-05-17T07:03:48;101674.59;;;10.98;55.17
31082;BME280;17737;52.586;13.284;2023-05-17T07:06:18;101682.34;;;10.64;55.06
31082;BME280;17737;52.586;13.284;2023-05-17T07:08:46;101675.78;;;10.76;55.37
31082;BME280;17737;52.586;13.284;2023-05-17T07:11:30;101666.72;;;10.77;55.11
31082;BME280;17737;52.586;13.284;2023-05-17T07:14:12;101668.94;;;11.19;55.01
31082;BME280;17737;52.586;13.284;2023-05-17T07:16:41;101667.81;;;10.38;58.44
31082;BME280;17737;52.586;13.284;2023-05-17T07:19:09;101676.06;;;10.18;60.33
31082;BME280;17737;52.586;13.284;2023-05-17T07:21:39;101673.91;;;10.02;60.77
31082;BME280;17737;52.586;13.284;2023-05-17T07:24:07;101683.03;;;10.11;59.58
31082;BME280;17737;52.586;13.284;2023-05-17T07:26:36;101677.63;;;10.30;58.86
31082;BME280;17737;52.586;13.284;2023-05-17T07:29:06;101683.44;;;10.35;58.94
31082;BME280;17737;52.586;13.284;2023-05-17T07:31:34;101685.84;;;10.09;58.87
31082;BME280;17737;52.586;13.284;2023-05-17T07:34:03;101686.97;;;9.97;57.95
31082;BME280;17737;52.586;13.284;2023-05-17T07:36:31;101690.47;;;9.98;55.93
31082;BME280;17737;52.586;13.284;2023-05-17T07:39:00;101707.25;;;10.20;56.06
31082;BME280;17737;52.586;13.284;2023-05-17T07:41:30;101705.25;;;10.22;54.61
31082;BME280;17737;52.586;13.284;2023-05-17T07:43:59;101699.72;;;10.43;53.81
31082;BME280;17737;52.586;13.284;2023-05-17T07:46:27;101712.97;;;10.73;53.63
31082;BME280;17737;52.586;13.284;2023-05-17T07:48:56;101707.16;;;11.14;51.88
31082;BME280;17737;52.586;13.284;2023-05-17T07:51:24;101710.00;;;11.13;51.86
31082;BME280;17737;52.586;13.284;2023-05-17T07:53:52;101719.19;;;10.83;50.58
31082;BME280;17737;52.586;13.284;2023-05-17T07:56:22;101723.78;;;10.63;50.67
31082;BME280;17737;52.586;13.284;2023-05-17T07:58:50;101718.59;;;10.89;50.24
31082;BME280;17737;52.586;13.284;2023-05-17T08:01:18;101728.38;;;10.90;50.22
31082;BME280;17737;52.586;13.284;2023-05-17T08:03:46;101731.41;;;10.77;51.21
31082;BME280;17737;52.586;13.284;2023-05-17T08:06:14;101732.16;;;11.07;50.84
31082;BME280;17737;52.586;13.284;2023-05-17T08:08:43;101738.19;;;11.55;49.83
31082;BME280;17737;52.586;13.284;2023-05-17T08:11:12;101733.88;;;11.08;51.55
31082;BME280;17737;52.586;13.284;2023-05-17T08:13:42;101749.84;;;11.19;52.04
31082;BME280;17737;52.586;13.284;2023-05-17T08:16:11;101752.00;;;10.69;53.97
31082;BME280;17737;52.586;13.284;2023-05-17T08:18:40;101741.31;;;10.86;53.05
31082;BME280;17737;52.586;13.284;2023-05-17T08:21:09;101749.69;;;10.83;52.00
31082;BME280;17737;52.586;13.284;2023-05-17T08:23:37;101740.63;;;10.75;51.94
31082;BME280;17737;52.586;13.284;2023-05-17T08:26:06;101753.81;;;10.88;50.75
31082;BME280;17737;52.586;13.284;2023-05-17T08:28:34;101759.06;;;10.79;51.26
31082;BME280;17737;52.586;13.284;2023-05-17T08:31:05;101752.38;;;10.83;50.74
31082;BME280;17737;52.586;13.284;2023-05-17T08:33:33;101746.84;;;10.95;50.81
31082;BME280;17737;52.586;13.284;2023-05-17T08:36:02;101753.88;;;11.05;50.25
31082;BME280;17737;52.586;13.284;2023-05-17T08:38:33;101754.28;;;11.10;49.87
31082;BME280;17737;52.586;13.284;2023-05-17T08:41:02;101758.97;;;11.45;48.99
31082;BME280;17737;52.586;13.284;2023-05-17T08:43:30;101753.81;;;11.51;49.20
31082;BME280;17737;52.586;13.284;2023-05-17T08:45:58;101760.56;;;11.92;47.50
31082;BME280;17737;52.586;13.284;2023-05-17T08:48:30;101758.09;;;11.54;46.23
31082;BME280;17737;52.586;13.284;2023-05-17T08:51:07;101755.31;;;11.36;47.58
31082;BME280;17737;52.586;13.284;2023-05-17T08:53:37;101762.09;;;11.77;47.44
31082;BME280;17737;52.586;13.284;2023-05-17T08:56:05;101758.91;;;11.64;47.40
31082;BME280;17737;52.586;13.284;2023-05-17T08:58:42;101756.19;;;11.91;46.78
31082;BME280;17737;52.586;13.284;2023-05-17T09:01:23;101768.25;;;12.14;45.84
31082;BME280;17737;52.586;13.284;2023-05-17T09:03:55;101759.19;;;11.88;45.63
31082;BME280;17737;52.586;13.284;2023-05-17T09:06:24;101755.75;;;12.13;46.12
31082;BME280;17737;52.586;13.284;2023-05-17T09:08:53;101760.06;;;12.06;46.65
31082;BME280;17737;52.586;13.284;2023-05-17T09:11:25;101766.78;;;12.37;46.55
31082;BME280;17737;52.586;13.284;2023-05-17T09:13:57;101762.75;;;12.59;45.83
31082;BME280;17737;52.586;13.284;2023-05-17T09:16:27;101749.00;;;12.52;45.34
31082;BME280;17737;52.586;13.284;2023-05-17T09:18:58;101739.81;;;12.28;46.20
31082;BME280;17737;52.586;13.284;2023-05-17T09:21:27;101762.84;;;12.32;44.48
31082;BME280;17737;52.586;13.284;2023-05-17T09:23:57;101750.69;;;11.56;45.29
31082;BME280;17737;52.586;13.284;2023-05-17T09:26:37;101763.47;;;12.08;44.70
31082;BME280;17737;52.586;13.284;2023-05-17T09:29:09;101766.03;;;12.27;44.25
31082;BME280;17737;52.586;13.284;2023-05-17T09:31:46;101748.84;;;11.83;45.23
31082;BME280;17737;52.586;13.284;2023-05-17T09:34:17;101750.59;;;11.48;44.94
31082;BME280;17737;52.586;13.284;2023-05-17T09:36:46;101751.94;;;11.61;45.14
31082;BME280;17737;52.586;13.284;2023-05-17T09:39:14;101744.59;;;11.81;45.58
31082;BME280;17737;52.586;13.284;2023-05-17T09:41:44;101742.88;;;11.80;45.93
31082;BME280;17737;52.586;13.284;2023-05-17T09:44:14;101738.19;;;11.82;45.93
31082;BME280;17737;52.586;13.284;2023-05-17T09:46:44;101752.47;;;11.92;45.48
31082;BME280;17737;52.586;13.284;2023-05-17T09:49:14;101748.72;;;12.20;45.11
31082;BME280;17737;52.586;13.284;2023-05-17T09:51:46;101752.69;;;12.69;44.69
31082;BME280;17737;52.586;13.284;2023-05-17T09:54:15;101758.44;;;12.91;44.35
31082;BME280;17737;52.586;13.284;2023-05-17T09:56:43;101759.28;;;12.66;44.10
31082;BME280;17737;52.586;13.284;2023-05-17T09:59:19;101755.28;;;12.53;42.37
31082;BME280;17737;52.586;13.284;2023-05-17T10:01:49;101765.16;;;12.87;41.85
31082;BME280;17737;52.586;13.284;2023-05-17T10:04:20;101763.34;;;13.13;41.06
31082;BME280;17737;52.586;13.284;2023-05-17T10:06:56;101760.34;;;13.24;40.96
31082;BME280;17737;52.586;13.284;2023-05-17T10:09:26;101763.88;;;13.51;40.98
31082;BME280;17737;52.586;13.284;2023-05-17T10:12:01;101759.34;;;13.59;40.89
31082;BME280;17737;52.586;13.284;2023-05-17T10:14:33;101762.13;;;13.75;39.76
31082;BME280;17737;52.586;13.284;2023-05-17T10:17:04;101758.31;;;13.27;41.01
31082;BME280;17737;52.586;13.284;2023-05-17T10:19:36;101762.72;;;13.61;40.61
31082;BME280;17737;52.586;13.284;2023-05-17T10:22:05;101767.78;;;12.97;41.31
31082;BME280;17737;52.586;13.284;2023-05-17T10:24:49;101779.41;;;12.97;41.21
31082;BME280;17737;52.586;13.284;2023-05-17T10:27:19;101759.03;;;13.29;40.77
31082;BME280;17737;52.586;13.284;2023-05-17T10:29:50;101764.69;;;13.43;40.03
31082;BME280;17737;52.586;13.284;2023-05-17T10:32:20;101768.66;;;13.57;39.55
31082;BME280;17737;52.586;13.284;2023-05-17T10:34:54;101766.69;;;13.75;39.33
31082;BME280;17737;52.586;13.284;2023-05-17T10:37:38;101771.75;;;13.78;39.72
31082;BME280;17737;52.586;13.284;2023-05-17T10:40:08;101773.03;;;13.58;40.46
31082;BME280;17737;52.586;13.284;2023-05-17T10:42:41;101765.25;;;13.55;40.19
31082;BME280;17737;52.586;13.284;2023-05-17T10:45:13;101777.16;;;13.78;40.10
31082;BME280;17737;52.586;13.284;2023-05-17T10:47:41;101775.03;;;13.14;40.52
31082;BME280;17737;52.586;13.284;2023-05-17T10:50:13;101775.06;;;13.22;41.31
31082;BME280;17737;52.586;13.284;2023-05-17T10:52:48;101784.19;;;13.55;41.53
31082;BME280;17737;52.586;13.284;2023-05-17T10:55:18;101794.38;;;14.02;40.59
31082;BME280;17737;52.586;13.284;2023-05-17T10:58:08;101796.53;;;13.91;39.92
31082;BME280;17737;52.586;13.284;2023-05-17T11:00:44;101784.41;;;14.19;39.53
31082;BME280;17737;52.586;13.284;2023-05-17T11:03:16;101774.81;;;14.57;38.45
31082;BME280;17737;52.586;13.284;2023-05-17T11:06:15;101793.44;;;14.27;38.95
31082;BME280;17737;52.586;13.284;2023-05-17T11:09:07;101781.69;;;14.19;38.44
31082;BME280;17737;52.586;13.284;2023-05-17T11:12:02;101790.16;;;13.66;39.40
31082;BME280;17737;52.586;13.284;2023-05-17T11:14:47;101782.69;;;14.10;39.33
31082;BME280;17737;52.586;13.284;2023-05-17T11:17:18;101787.63;;;14.14;38.67
31082;BME280;17737;52.586;13.284;2023-05-17T11:19:54;101786.59;;;14.07;38.79
31082;BME280;17737;52.586;13.284;2023-05-17T11:22:25;101780.22;;;13.75;38.06
31082;BME280;17737;52.586;13.284;2023-05-17T11:24:56;101802.28;;;13.54;39.70
31082;BME280;17737;52.586;13.284;2023-05-17T11:27:24;101791.97;;;13.50;40.15
31082;BME280;17737;52.586;13.284;2023-05-17T11:29:54;101796.84;;;13.88;39.91
31082;BME280;17737;52.586;13.284;2023-05-17T11:32:26;101793.78;;;14.40;39.07
31082;BME280;17737;52.586;13.284;2023-05-17T11:34:58;101782.41;;;14.29;39.05
31082;BME280;17737;52.586;13.284;2023-05-17T11:37:29;101791.59;;;14.28;38.85
31082;BME280;17737;52.586;13.284;2023-05-17T11:40:03;101783.81;;;14.57;37.84
31082;BME280;17737;52.586;13.284;2023-05-17T11:42:32;101782.03;;;14.24;38.42
31082;BME280;17737;52.586;13.284;2023-05-17T11:45:03;101782.47;;;14.69;38.61
31082;BME280;17737;52.586;13.284;2023-05-17T11:47:33;101792.78;;;14.42;38.46
31082;BME280;17737;52.586;13.284;2023-05-17T11:50:06;101779.78;;;14.03;38.64
31082;BME280;17737;52.586;13.284;2023-05-17T11:52:39;101781.53;;;14.20;38.49
31082;BME280;17737;52.586;13.284;2023-05-17T11:55:08;101783.00;;;13.91;39.26
31082;BME280;17737;52.586;13.284;2023-05-17T11:57:41;101784.31;;;14.45;38.34
31082;BME280;17737;52.586;13.284;2023-05-17T12:00:11;101791.59;;;14.68;37.10
31082;BME280;17737;52.586;13.284;2023-05-17T12:02:42;101794.16;;;14.86;37.34
31082;BME280;17737;52.586;13.284;2023-05-17T12:05:10;101782.59;;;15.00;36.63
31082;BME280;17737;52.586;13.284;2023-05-17T12:07:39;101790.19;;;15.12;36.03
31082;BME280;17737;52.586;13.284;2023-05-17T12:10:14;101786.13;;;15.16;36.10
31082;BME280;17737;52.586;13.284;2023-05-17T12:12:42;101787.97;;;15.40;35.96
31082;BME280;17737;52.586;13.284;2023-05-17T12:15:17;101793.59;;;14.98;36.09
31082;BME280;17737;52.586;13.284;2023-05-17T12:17:46;101789.88;;;15.07;36.94
31082;BME280;17737;52.586;13.284;2023-05-17T12:20:17;101798.69;;;15.25;36.62
31082;BME280;17737;52.586;13.284;2023-05-17T12:22:53;101790.25;;;14.80;37.45
31082;BME280;17737;52.586;13.284;2023-05-17T12:25:23;101797.88;;;14.53;38.01
31082;BME280;17737;52.586;13.284;2023-05-17T12:27:53;101789.91;;;14.51;38.16
31082;BME280;17737;52.586;13.284;2023-05-17T12:30:38;101801.25;;;15.03;37.29
31082;BME280;17737;52.586;13.284;2023-05-17T12:33:07;101793.25;;;15.17;35.88
31082;BME280;17737;52.586;13.284;2023-05-17T12:35:36;101803.75;;;15.20;35.89
31082;BME280;17737;52.586;13.284;2023-05-17T12:38:06;101793.94;;;15.11;35.88
31082;BME280;17737;52.586;13.284;2023-05-17T12:40:38;101795.25;;;15.31;35.54
31082;BME280;17737;52.586;13.284;2023-05-17T12:43:09;101795.09;;;15.25;35.11
31082;BME280;17737;52.586;13.284;2023-05-17T12:45:40;101769.56;;;14.87;35.16
31082;BME280;17737;52.586;13.284;2023-05-17T12:48:08;101792.28;;;14.86;35.55
31082;BME280;17737;52.586;13.284;2023-05-17T12:50:36;101804.66;;;14.89;35.64
31082;BME280;17737;52.586;13.284;2023-05-17T12:53:10;101789.81;;;15.39;35.49
31082;BME280;17737;52.586;13.284;2023-05-17T12:55:38;101794.91;;;15.34;35.33
31082;BME280;17737;52.586;13.284;2023-05-17T12:58:06;101795.25;;;15.39;35.67
31082;BME280;17737;52.586;13.284;2023-05-17T13:00:34;101792.47;;;15.64;35.18